createdAt,value
2023-02-19T00:03:13.006Z,0.95
2023-02-19T00:08:14.636Z,1.80
2023-02-19T00:13:16.305Z,2.15
2023-02-19T00:18:18.009Z,1.58
2023-02-19T00:23:19.770Z,1.10
2023-02-19T00:28:21.824Z,2.15
2023-02-19T00:33:23.553Z,1.13
2023-02-19T00:38:25.199Z,1.33
2023-02-19T00:43:27.138Z,0.90
2023-02-19T00:48:28.794Z,1.13
2023-02-19T00:53:30.485Z,1.58
2023-02-19T00:58:32.343Z,4.00
2023-02-19T01:03:35.106Z,1.27
2023-02-19T01:08:37.735Z,1.10
2023-02-19T01:13:40.247Z,1.30
2023-02-19T01:18:42.511Z,1.00
2023-02-19T01:23:45.234Z,0.93
2023-02-19T01:28:48.242Z,0.93
2023-02-19T01:33:51.969Z,1.27
2023-02-19T01:38:53.743Z,1.17
2023-02-19T01:44:01.138Z,1.58
2023-02-19T01:49:16.404Z,1.27
2023-02-19T01:54:20.235Z,1.50
2023-02-19T01:59:22.193Z,1.38
2023-02-19T02:04:23.870Z,1.52
2023-02-19T02:09:46.696Z,1.80
2023-02-19T02:14:48.569Z,0.77
2023-02-19T02:20:17.897Z,1.73
2023-02-19T02:25:38.362Z,2.08
2023-02-19T02:30:43.007Z,0.90
2023-02-19T02:35:48.813Z,1.60
2023-02-19T02:40:51.751Z,0.82
2023-02-19T02:45:53.957Z,0.80
2023-02-19T02:51:24.350Z,0.50
2023-02-19T02:56:40.319Z,1.60
2023-02-19T03:02:06.130Z,0.98
2023-02-19T03:07:09.778Z,0.90
2023-02-19T03:12:34.157Z,0.65
2023-02-19T03:18:06.367Z,0.85
2023-02-19T03:23:09.641Z,0.40
2023-02-19T03:28:13.104Z,3.03
2023-02-19T03:33:19.568Z,0.60
2023-02-19T03:38:24.170Z,1.00
2023-02-19T03:43:41.476Z,2.20
2023-02-19T03:49:06.835Z,1.35
2023-02-19T03:54:12.744Z,0.57
2023-02-19T03:59:37.332Z,0.38
2023-02-19T04:04:49.757Z,0.30
2023-02-19T04:09:52.430Z,0.20
2023-02-19T04:15:01.507Z,0.40
2023-02-19T04:20:07.511Z,0.38
2023-02-19T04:25:09.415Z,0.10
2023-02-19T04:30:13.600Z,0.50
2023-02-19T04:35:15.256Z,0.45
2023-02-19T04:40:17.064Z,0.22
2023-02-19T04:45:18.726Z,0.13
2023-02-19T04:50:20.481Z,1.20
2023-02-19T04:55:25.378Z,0.10
2023-02-19T05:00:27.135Z,0.30
2023-02-19T05:05:28.772Z,0.82
2023-02-19T05:10:30.660Z,0.17
2023-02-19T05:15:32.386Z,0.30
2023-02-19T05:20:34.010Z,0.50
2023-02-19T05:25:35.719Z,1.00
2023-02-19T05:30:37.413Z,0.60
2023-02-19T05:35:43.735Z,0.63
2023-02-19T05:40:46.102Z,0.30
2023-02-19T05:45:47.783Z,0.68
2023-02-19T05:50:49.473Z,0.10
2023-02-19T05:55:51.114Z,0.32
2023-02-19T06:00:52.927Z,0.35
2023-02-19T06:05:54.534Z,1.45
2023-02-19T06:10:56.185Z,0.55
2023-02-19T06:15:57.857Z,0.25
2023-02-19T06:21:07.117Z,0.13
2023-02-19T06:26:16.076Z,1.90
2023-02-19T06:31:19.165Z,0.20
2023-02-19T06:36:21.571Z,0.10
2023-02-19T06:41:23.196Z,0.20
2023-02-19T06:46:24.879Z,0.20
2023-02-19T06:51:28.786Z,0.17
2023-02-19T06:56:39.540Z,0.90
2023-02-19T07:01:41.158Z,1.17
2023-02-19T07:06:42.917Z,0.30
2023-02-19T07:11:44.547Z,0.20
2023-02-19T07:16:47.463Z,0.43
2023-02-19T07:21:49.171Z,1.20
2023-02-19T07:26:50.870Z,0.43
2023-02-19T07:31:52.494Z,0.88
2023-02-19T07:36:54.148Z,0.70
2023-02-19T07:41:55.810Z,0.32
2023-02-19T07:47:06.946Z,0.30
2023-02-19T07:52:08.684Z,0.95
2023-02-19T07:57:10.787Z,0.98
2023-02-19T08:02:35.732Z,0.95
2023-02-19T08:07:37.803Z,0.50
2023-02-19T08:12:57.871Z,0.90
2023-02-19T08:17:59.497Z,0.52
2023-02-19T08:23:01.167Z,1.88
2023-02-19T08:28:03.490Z,1.40
2023-02-19T08:33:06.865Z,0.93
2023-02-19T08:38:10.124Z,0.73
2023-02-19T08:43:13.831Z,1.70
2023-02-19T08:48:15.592Z,2.03
2023-02-19T08:53:17.209Z,1.63
2023-02-19T08:58:19.301Z,2.20
2023-02-19T09:03:20.900Z,2.30
2023-02-19T09:08:22.560Z,1.17
2023-02-19T09:13:24.162Z,2.47
2023-02-19T09:18:26.252Z,2.50
2023-02-19T09:23:28.313Z,1.38
2023-02-19T09:28:29.930Z,1.73
2023-02-19T09:33:31.570Z,1.70
2023-02-19T09:38:33.189Z,2.28
2023-02-19T09:43:34.903Z,2.65
2023-02-19T09:48:36.534Z,1.88
2023-02-19T09:53:42.504Z,2.05
2023-02-19T09:58:48.937Z,1.30
2023-02-19T10:03:50.662Z,1.55
2023-02-19T10:09:16.905Z,0.98
2023-02-19T10:14:24.898Z,1.55
2023-02-19T10:19:26.601Z,1.15
2023-02-19T10:24:29.728Z,1.02
2023-02-19T10:29:31.357Z,2.85
2023-02-19T10:34:33.004Z,1.08
2023-02-19T10:39:46.755Z,1.48
2023-02-19T10:44:53.399Z,1.33
2023-02-19T10:49:57.402Z,2.08
2023-02-19T10:55:17.357Z,2.10
2023-02-19T11:00:23.190Z,1.20
2023-02-19T11:05:25.132Z,1.33
2023-02-19T11:10:28.418Z,1.27
2023-02-19T11:15:35.589Z,1.52
2023-02-19T11:20:37.362Z,0.38
2023-02-19T11:25:45.617Z,0.40
2023-02-19T11:30:48.184Z,0.63
2023-02-19T11:36:21.053Z,7.20
2023-02-19T11:41:59.637Z,0.50
2023-02-19T11:47:22.959Z,0.80
2023-02-19T11:52:33.659Z,1.60
2023-02-19T11:57:39.270Z,0.73
2023-02-19T12:03:02.153Z,0.75
2023-02-19T12:08:14.073Z,1.45
2023-02-19T12:13:42.226Z,1.52
2023-02-19T12:19:00.115Z,1.23
2023-02-19T12:24:23.091Z,0.73
2023-02-19T12:29:47.900Z,0.70
2023-02-19T12:35:10.833Z,1.45
2023-02-19T12:40:43.553Z,0.73
2023-02-19T12:45:45.219Z,0.90
2023-02-19T12:50:49.754Z,0.63
2023-02-19T12:55:52.434Z,0.40
2023-02-19T13:00:59.025Z,0.90
2023-02-19T13:06:21.638Z,1.13
2023-02-19T13:11:37.015Z,0.85
2023-02-19T13:16:40.300Z,0.55
2023-02-19T13:22:01.075Z,1.33
2023-02-19T13:27:41.751Z,0.85
2023-02-19T13:33:03.726Z,1.08
2023-02-19T13:43:26.122Z,0.93
2023-02-19T13:48:29.385Z,0.40
2023-02-19T13:53:44.622Z,0.63
2023-02-19T13:58:56.098Z,0.22
2023-02-19T14:04:09.930Z,0.70
2023-02-19T14:09:36.255Z,0.52
2023-02-19T14:14:43.608Z,1.08
2023-02-19T14:19:48.859Z,0.80
2023-02-19T14:24:52.812Z,0.32
2023-02-19T14:29:54.477Z,0.80
2023-02-19T14:34:58.088Z,0.65
2023-02-19T14:39:59.768Z,1.13
2023-02-19T14:45:03.731Z,1.23
2023-02-19T14:50:29.371Z,1.08
2023-02-19T14:55:34.237Z,0.63
2023-02-19T15:00:40.975Z,1.02
2023-02-19T15:10:46.680Z,1.33
2023-02-19T15:15:48.448Z,0.70
2023-02-19T15:20:51.059Z,1.08
2023-02-19T15:25:52.892Z,1.30
2023-02-19T15:30:57.619Z,0.98
2023-02-19T15:36:01.752Z,1.55
2023-02-19T15:41:03.856Z,1.42
2023-02-19T15:46:22.720Z,1.00
2023-02-19T15:51:45.806Z,2.33
2023-02-19T15:56:49.729Z,1.60
2023-02-19T16:01:51.484Z,0.98
2023-02-19T16:06:59.555Z,1.90
2023-02-19T16:12:02.324Z,0.77
2023-02-19T16:17:10.214Z,1.58
2023-02-19T16:22:13.251Z,2.00
2023-02-19T16:27:31.751Z,2.30
2023-02-19T16:32:33.446Z,1.70
2023-02-19T16:37:40.793Z,1.00
2023-02-19T16:42:52.237Z,2.10
2023-02-19T16:47:54.067Z,1.92
2023-02-19T16:53:03.730Z,1.90
2023-02-19T16:58:05.361Z,1.05
2023-02-19T17:03:19.951Z,1.98
2023-02-19T17:08:43.632Z,1.15
2023-02-19T17:13:48.714Z,8.43
2023-02-19T17:18:51.254Z,2.10
2023-02-19T17:23:54.123Z,1.13
2023-02-19T17:28:57.342Z,1.80
2023-02-19T17:34:02.175Z,1.33
2023-02-19T17:39:07.162Z,2.20
2023-02-19T17:44:09.057Z,2.10
2023-02-19T17:49:11.315Z,1.98
2023-02-19T17:54:13.007Z,1.58
2023-02-19T17:59:16.393Z,2.28
2023-02-19T18:04:19.656Z,1.70
2023-02-19T18:09:22.389Z,2.08
2023-02-19T18:14:24.159Z,1.60
2023-02-19T18:19:26.039Z,2.45
2023-02-19T18:24:27.715Z,2.17
2023-02-19T18:29:31.871Z,2.25
2023-02-19T18:34:34.974Z,2.08
2023-02-19T18:39:36.709Z,2.05
2023-02-19T18:44:38.911Z,3.67
2023-02-19T18:49:40.941Z,4.03
2023-02-19T18:54:45.118Z,2.67
2023-02-19T18:59:47.034Z,4.50
2023-02-19T19:04:52.864Z,3.25
2023-02-19T19:09:54.721Z,3.20
2023-02-19T19:14:56.839Z,4.07
2023-02-19T19:19:58.476Z,2.97
2023-02-19T19:25:00.127Z,3.83
2023-02-19T19:30:02.194Z,3.97
2023-02-19T19:35:04.423Z,3.25
2023-02-19T19:40:06.723Z,2.50
2023-02-19T19:45:09.468Z,3.97
2023-02-19T19:50:13.164Z,3.10
2023-02-19T19:55:16.042Z,3.25
2023-02-19T20:00:18.944Z,2.55
2023-02-19T20:05:20.801Z,2.60
2023-02-19T20:10:22.441Z,3.30
2023-02-19T20:15:24.091Z,1.90
2023-02-19T20:20:25.770Z,2.42
2023-02-19T20:25:27.561Z,4.03
2023-02-19T20:30:29.540Z,6.78
2023-02-19T20:35:38.685Z,3.88
2023-02-19T20:40:47.053Z,3.38
2023-02-19T20:45:48.726Z,2.80
2023-02-19T20:50:50.409Z,3.95
2023-02-19T20:55:52.127Z,3.80
2023-02-19T21:00:55.808Z,3.33
2023-02-19T21:05:57.468Z,4.57
2023-02-19T21:10:59.076Z,2.95
2023-02-19T21:16:00.967Z,3.60
2023-02-19T21:21:05.601Z,2.90
2023-02-19T21:26:07.260Z,3.90
2023-02-19T21:31:09.215Z,3.53
2023-02-19T21:36:11.230Z,2.70
2023-02-19T21:41:13.097Z,2.50
2023-02-19T21:46:18.902Z,6.80
2023-02-19T21:51:21.695Z,3.53
2023-02-19T21:56:25.205Z,3.13
2023-02-19T22:01:30.355Z,3.70
2023-02-19T22:06:32.181Z,3.78
2023-02-19T22:11:36.998Z,3.42
2023-02-19T22:16:38.649Z,3.13
2023-02-19T22:21:44.638Z,2.97
2023-02-19T22:26:47.052Z,2.85
2023-02-19T22:31:48.777Z,1.88
2023-02-19T22:36:50.705Z,3.33
2023-02-19T22:41:52.941Z,3.30
2023-02-19T22:46:56.519Z,2.83
2023-02-19T22:52:07.967Z,2.22
2023-02-19T22:57:09.661Z,4.80
2023-02-19T23:02:11.433Z,3.40
2023-02-19T23:07:13.039Z,3.80
2023-02-19T23:12:14.794Z,2.75
2023-02-19T23:17:16.459Z,3.45
2023-02-19T23:22:18.129Z,3.75
2023-02-19T23:27:20.061Z,4.10
2023-02-19T23:32:23.726Z,3.75
2023-02-19T23:37:25.319Z,3.60
2023-02-19T23:42:26.959Z,4.57
2023-02-19T23:47:30.560Z,3.97
2023-02-19T23:52:32.353Z,4.32
2023-02-19T23:57:34.243Z,5.05
